Time;durP1;ratioP1;P1;durP2;ratioP2;P2;SDS_P1;SDS_P2;PMS_P1;PMS_P2;Temp;Humidity;BMP_temperature;BMP_pressure;BME280_temperature;BME280_humidity;BME280_pressure;Samples;Min_cycle;Max_cycle;Signal;HPM_P1;HPM_P2
2021/12/14 00:01:59;;;;;;;;;;;3.20;99.90;;;;;;5026562;28;20037;-74
2021/12/14 00:04:35;;;;;;;38.80;22.55;;;3.20;99.90;;;;;;5026127;28;19909;-77
2021/12/14 00:07:05;;;;;;;38.10;20.73;;;3.20;99.90;;;;;;5027353;28;20416;-76
2021/12/14 00:09:35;;;;;;;44.67;23.35;;;3.10;99.90;;;;;;5027405;28;20030;-76
2021/12/14 00:17:27;;;;;;;38.85;22.13;;;3.20;99.90;;;;;;5027426;28;20079;-76
2021/12/14 00:19:56;;;;;;;34.45;19.55;;;3.10;99.90;;;;;;5027266;28;20026;-75
2021/12/14 00:24:56;;;;;;;38.45;19.80;;;3.10;99.90;;;;;;5026199;28;20053;-76
2021/12/14 00:27:23;;;;;;;34.95;18.75;;;3.10;99.90;;;;;;5025929;28;20064;-75
2021/12/14 00:29:53;;;;;;;31.23;18.40;;;3.10;99.90;;;;;;5027132;28;20033;-77
2021/12/14 00:32:20;;;;;;;28.75;17.50;;;3.00;99.90;;;;;;5027273;28;20091;-76
2021/12/14 00:34:55;;;;;;;34.08;18.08;;;3.10;99.90;;;;;;5025747;28;20159;-76
2021/12/14 00:37:30;;;;;;;40.28;19.55;;;3.10;99.90;;;;;;5027104;28;20025;-79
2021/12/14 00:39:59;;;;;;;38.38;19.83;;;3.10;99.90;;;;;;5027360;28;20128;-75
2021/12/14 00:42:25;;;;;;;34.55;18.80;;;3.10;99.90;;;;;;5027099;28;20036;-77
2021/12/14 00:44:51;;;;;;;36.67;19.15;;;3.10;99.90;;;;;;5030211;28;20472;-78
2021/12/14 00:47:17;;;;;;;41.15;20.90;;;3.10;99.90;;;;;;5030701;28;20116;-78
2021/12/14 00:49:43;;;;;;;30.58;17.45;;;3.10;99.90;;;;;;5013236;28;20307;-77
2021/12/14 00:52:10;;;;;;;30.83;17.92;;;3.10;99.90;;;;;;5030738;28;20034;-78
2021/12/14 00:54:37;;;;;;;36.47;18.20;;;3.10;99.90;;;;;;5013146;28;20030;-77
2021/12/14 00:57:05;;;;;;;30.90;17.25;;;3.10;99.90;;;;;;5029306;28;20033;-76
2021/12/14 00:59:31;;;;;;;41.50;19.95;;;3.10;99.90;;;;;;5029364;28;20075;-79
2021/12/14 01:02:21;;;;;;;32.10;18.65;;;3.00;99.90;;;;;;5030350;28;20033;-76
2021/12/14 01:04:56;;;;;;;34.58;19.13;;;3.00;99.90;;;;;;5030465;28;20123;-76
2021/12/14 01:07:27;;;;;;;29.52;18.45;;;3.00;99.90;;;;;;5030472;28;20108;-78
2021/12/14 01:09:57;;;;;;;30.40;16.92;;;3.00;99.90;;;;;;5030511;28;20025;-76
2021/12/14 01:12:41;;;;;;;29.00;16.08;;;3.10;99.90;;;;;;5028926;28;20469;-75
2021/12/14 01:15:28;;;;;;;30.52;17.23;;;3.10;99.90;;;;;;5030294;28;20065;-77
2021/12/14 01:18:16;;;;;;;32.38;16.13;;;3.20;99.90;;;;;;5030226;28;20427;-75
2021/12/14 01:20:49;;;;;;;24.20;14.98;;;3.20;99.90;;;;;;5030265;28;20064;-78
2021/12/14 01:23:28;;;;;;;30.00;16.67;;;3.30;99.90;;;;;;5028830;28;20487;-75
2021/12/14 01:25:58;;;;;;;33.22;17.95;;;3.30;99.90;;;;;;5029936;28;20038;-77
2021/12/14 01:28:26;;;;;;;28.42;16.25;;;3.20;99.90;;;;;;5030126;28;20045;-79
2021/12/14 01:31:09;;;;;;;33.92;17.70;;;3.20;99.90;;;;;;5028743;28;20105;-78
2021/12/14 01:33:38;;;;;;;34.13;17.13;;;3.20;99.90;;;;;;5030188;28;20064;-77
2021/12/14 01:36:11;;;;;;;31.67;17.50;;;3.20;99.90;;;;;;5028523;28;20437;-77
2021/12/14 01:38:45;;;;;;;26.17;16.38;;;3.20;99.90;;;;;;5029886;28;20369;-76
2021/12/14 01:41:13;;;;;;;28.50;16.35;;;3.10;99.90;;;;;;5028464;28;20029;-77
2021/12/14 01:43:55;;;;;;;25.45;14.27;;;3.20;99.90;;;;;;5029833;28;20131;-78
2021/12/14 01:46:28;;;;;;;25.83;15.43;;;3.20;99.90;;;;;;5029905;28;20071;-77
2021/12/14 01:48:55;;;;;;;20.42;14.00;;;3.20;99.90;;;;;;5029785;28;20031;-77
2021/12/14 01:51:21;;;;;;;;;;;3.30;99.90;;;;;;5028890;28;20500;-77
2021/12/14 01:53:51;;;;;;;26.90;15.15;;;3.40;99.90;;;;;;5028215;28;19956;-77
2021/12/14 01:56:21;;;;;;;21.08;15.40;;;3.40;99.90;;;;;;5028217;28;20029;-77
2021/12/14 01:58:51;;;;;;;25.23;14.77;;;3.50;99.90;;;;;;5028289;28;20029;-74
2021/12/14 02:01:20;;;;;;;24.30;15.23;;;3.50;99.90;;;;;;5029445;28;20689;-77
2021/12/14 02:03:57;;;;;;;24.42;15.73;;;3.50;99.90;;;;;;5029427;28;20037;-77
2021/12/14 02:06:28;;;;;;;29.38;17.10;;;3.50;99.90;;;;;;5029462;28;20017;-77
2021/12/14 02:09:03;;;;;;;27.13;16.00;;;3.60;99.90;;;;;;5029632;28;20029;-78
2021/12/14 02:11:34;;;;;;;31.63;17.25;;;3.60;99.90;;;;;;5028076;28;20025;-80
2021/12/14 02:14:01;;;;;;;24.38;15.23;;;3.60;99.90;;;;;;5029376;28;20099;-79
2021/12/14 02:16:27;;;;;;;29.27;15.63;;;3.60;99.90;;;;;;5011791;28;20057;-78
2021/12/14 02:19:14;;;;;;;31.17;15.77;;;3.50;99.90;;;;;;5029042;28;20506;-76
2021/12/14 02:21:42;;;;;;;26.77;15.57;;;3.50;99.90;;;;;;5029061;28;20029;-76
2021/12/14 02:24:10;;;;;;;29.85;16.48;;;3.50;99.90;;;;;;5028836;28;20426;-77
2021/12/14 02:26:41;;;;;;;28.27;15.75;;;3.50;99.90;;;;;;5027628;28;20086;-77
2021/12/14 02:29:09;;;;;;;29.20;16.20;;;3.50;99.90;;;;;;5028984;28;20025;-76
2021/12/14 02:31:38;;;;;;;25.98;14.57;;;3.50;99.90;;;;;;5028860;28;20021;-76
2021/12/14 02:34:05;;;;;;;26.58;16.20;;;3.50;99.90;;;;;;5028891;28;20022;-75
2021/12/14 02:36:39;;;;;;;27.10;16.05;;;3.50;99.90;;;;;;5028647;28;20104;-77
2021/12/14 02:39:22;;;;;;;26.67;15.98;;;3.50;99.90;;;;;;5029072;28;20105;-77
2021/12/14 02:41:53;;;;;;;24.52;13.52;;;3.50;99.90;;;;;;5028623;28;20039;-77
2021/12/14 02:44:20;;;;;;;30.02;17.20;;;3.50;99.90;;;;;;5027254;28;20052;-79
2021/12/14 02:46:51;;;;;;;29.60;16.10;;;3.40;99.90;;;;;;5028585;28;20017;-76
2021/12/14 02:49:22;;;;;;;24.08;15.80;;;3.40;99.90;;;;;;5027326;28;20041;-78
2021/12/14 02:51:54;;;;;;;23.95;15.07;;;3.30;99.90;;;;;;5028442;28;20035;-78
2021/12/14 02:54:31;;;;;;;21.25;14.30;;;3.30;99.90;;;;;;5028435;28;20095;-79
2021/12/14 02:57:05;;;;;;;20.02;12.90;;;3.30;99.90;;;;;;5028372;28;20029;-77
2021/12/14 02:59:36;;;;;;;14.60;12.05;;;3.30;99.90;;;;;;5028462;28;20106;-75
2021/12/14 03:02:09;;;;;;;19.63;12.77;;;3.30;99.90;;;;;;5028252;28;20030;-76
2021/12/14 03:04:49;;;;;;;20.63;13.52;;;3.30;99.90;;;;;;5027116;28;20021;-78
2021/12/14 03:07:16;;;;;;;22.58;13.63;;;3.40;99.90;;;;;;5027908;28;20376;-78
2021/12/14 03:09:57;;;;;;;24.13;14.75;;;3.50;99.90;;;;;;5028212;28;20477;-75
2021/12/14 03:12:29;;;;;;;21.30;14.88;;;3.60;99.90;;;;;;5028327;28;20486;-77
2021/12/14 03:14:59;;;;;;;26.58;15.77;;;3.60;99.90;;;;;;5028170;28;20109;-74
2021/12/14 03:17:25;;;;;;;20.35;14.13;;;3.60;99.90;;;;;;5026640;28;20026;-75
2021/12/14 03:19:57;;;;;;;20.17;14.07;;;3.70;99.90;;;;;;5028049;28;20040;-78
2021/12/14 03:22:47;;;;;;;24.33;14.10;;;3.70;99.90;;;;;;5027957;28;20041;-75
2021/12/14 03:25:15;;;;;;;21.10;13.85;;;3.70;99.90;;;;;;5027863;28;20049;-76
2021/12/14 03:27:43;;;;;;;16.73;13.73;;;3.70;99.90;;;;;;5027794;28;20049;-79
2021/12/14 03:30:26;;;;;;;15.02;11.48;;;3.80;99.90;;;;;;5026581;28;20112;-74
2021/12/14 03:32:55;;;;;;;15.38;11.10;;;3.80;99.90;;;;;;5026603;28;20515;-75
2021/12/14 03:35:41;;;;;;;15.65;11.85;;;3.80;99.90;;;;;;5026568;28;20457;-74
2021/12/14 03:38:24;;;;;;;18.40;10.80;;;3.90;99.90;;;;;;5027858;28;20108;-78
2021/12/14 03:40:57;;;;;;;16.27;11.10;;;4.00;99.90;;;;;;5026468;28;20033;-76
2021/12/14 03:43:24;;;;;;;16.20;11.18;;;4.00;99.90;;;;;;5026493;28;20021;-77
2021/12/14 03:45:50;;;;;;;12.07;10.60;;;4.00;99.90;;;;;;5010039;28;20124;-78
2021/12/14 03:48:16;;;;;;;;;;;4.10;99.90;;;;;;5026936;28;20029;-79
2021/12/14 03:50:42;;;;;;;12.57;11.18;;;4.10;99.90;;;;;;5027621;28;19909;-76
2021/12/14 03:53:12;;;;;;;13.50;10.43;;;4.20;99.90;;;;;;5026338;28;20487;-78
2021/12/14 03:55:43;;;;;;;16.17;11.02;;;4.20;99.90;;;;;;5027544;28;20041;-78
2021/12/14 03:58:13;;;;;;;11.25;10.15;;;4.20;99.90;;;;;;5027631;28;20037;-76
2021/12/14 04:00:44;;;;;;;10.35;9.35;;;4.20;99.90;;;;;;5027616;28;20356;-76
2021/12/14 04:03:14;;;;;;;11.25;9.68;;;4.20;99.90;;;;;;5027535;28;20071;-78
2021/12/14 04:05:41;;;;;;;9.73;8.70;;;4.20;99.90;;;;;;5027772;28;20454;-76
2021/12/14 04:08:07;;;;;;;9.73;8.77;;;4.20;99.90;;;;;;5027497;28;20025;-75
2021/12/14 04:10:34;;;;;;;;;;;4.20;99.90;;;;;;5010398;28;20066;-76
2021/12/14 04:13:00;;;;;;;8.35;6.18;;;4.20;99.90;;;;;;5027544;28;19959;-76
2021/12/14 04:15:27;;;;;;;9.73;7.80;;;4.30;99.90;;;;;;5026287;28;20037;-76
2021/12/14 04:17:53;;;;;;;8.63;7.90;;;4.30;99.90;;;;;;5027365;28;20034;-78
2021/12/14 04:20:21;;;;;;;;;;;4.50;99.90;;;;;;5014113;28;20438;-77
2021/12/14 04:22:49;;;;;;;11.07;7.78;;;4.70;99.90;;;;;;5029928;28;19913;-77
2021/12/14 04:25:18;;;;;;;10.00;8.43;;;4.90;99.90;;;;;;5031172;28;20073;-75
2021/12/14 04:27:46;;;;;;;11.10;9.93;;;5.10;99.90;;;;;;5031270;28;20017;-76
2021/12/14 04:30:15;;;;;;;11.75;10.65;;;5.10;99.90;;;;;;5031143;28;20026;-76
2021/12/14 04:32:44;;;;;;;12.93;10.63;;;5.30;99.90;;;;;;5031083;28;20034;-78
2021/12/14 04:35:10;;;;;;;11.63;10.48;;;5.40;99.90;;;;;;5031188;28;20116;-78
2021/12/14 04:37:39;;;;;;;17.40;11.45;;;5.50;99.90;;;;;;5029690;28;20550;-76
2021/12/14 04:54:14;;;;;;;14.77;12.40;;;6.00;99.90;;;;;;5030002;28;20056;-75
2021/12/14 04:56:45;;;;;;;19.13;11.95;;;6.00;99.90;;;;;;5030842;28;20026;-74
2021/12/14 04:59:24;;;;;;;18.48;11.95;;;6.10;99.90;;;;;;5029291;28;20030;-77
2021/12/14 05:01:54;;;;;;;18.30;11.93;;;6.20;99.90;;;;;;5030385;28;20025;-76
2021/12/14 05:04:23;;;;;;;18.45;13.50;;;6.20;99.90;;;;;;5029044;28;20033;-75
2021/12/14 05:06:56;;;;;;;18.52;13.82;;;6.30;99.90;;;;;;5029203;28;20114;-77
2021/12/14 05:09:28;;;;;;;23.13;14.77;;;6.40;99.90;;;;;;5030453;28;20495;-76
2021/12/14 05:12:07;;;;;;;16.50;11.63;;;6.40;99.90;;;;;;5030394;28;20401;-79
2021/12/14 05:14:35;;;;;;;11.73;10.40;;;6.50;99.90;;;;;;5030379;28;20126;-77
2021/12/14 05:17:07;;;;;;;14.38;11.27;;;6.60;99.90;;;;;;5030232;28;20507;-75
2021/12/14 05:19:36;;;;;;;15.38;11.25;;;6.60;99.90;;;;;;5030275;28;20037;-78
2021/12/14 05:22:23;;;;;;;14.20;12.73;;;6.60;99.90;;;;;;5030166;28;20409;-77
2021/12/14 05:24:56;;;;;;;11.32;10.00;;;6.70;99.90;;;;;;5030026;28;20056;-78
2021/12/14 05:27:27;;;;;;;11.07;9.52;;;6.70;99.90;;;;;;5028749;28;20022;-77
2021/12/14 05:29:53;;;;;;;13.60;11.18;;;6.70;99.90;;;;;;5029548;28;20055;-78
2021/12/14 05:32:19;;;;;;;15.90;12.10;;;6.70;99.90;;;;;;5029914;28;20029;-75
2021/12/14 05:34:49;;;;;;;12.00;10.90;;;6.70;99.90;;;;;;5030008;28;20029;-74
2021/12/14 05:37:28;;;;;;;13.15;11.82;;;6.80;99.90;;;;;;5029725;28;20029;-77
2021/12/14 05:40:04;;;;;;;17.27;11.25;;;6.80;99.90;;;;;;5029779;28;20049;-76
2021/12/14 05:45:21;;;;;;;13.98;12.52;;;6.80;99.90;;;;;;5030109;28;20067;-77
2021/12/14 05:47:54;;;;;;;14.95;12.48;;;6.80;99.90;;;;;;5029638;28;20029;-77
2021/12/14 05:50:29;;;;;;;16.30;14.20;;;6.80;99.90;;;;;;5029707;28;20030;-76
2021/12/14 05:52:55;;;;;;;16.25;14.13;;;6.80;99.90;;;;;;5029663;28;20037;-75
2021/12/14 05:55:25;;;;;;;17.20;14.13;;;6.80;99.90;;;;;;5029514;28;20034;-76
2021/12/14 05:57:53;;;;;;;18.17;13.52;;;6.90;99.90;;;;;;5029357;28;20025;-76
2021/12/14 06:00:20;;;;;;;14.98;13.20;;;6.90;99.90;;;;;;5029446;28;20026;-75
2021/12/14 06:02:46;;;;;;;14.95;12.93;;;6.90;99.90;;;;;;5011562;28;20338;-74
2021/12/14 06:05:18;;;;;;;14.27;12.77;;;6.90;99.90;;;;;;5029565;28;20474;-75
2021/12/14 06:07:44;;;;;;;16.92;13.93;;;7.00;99.90;;;;;;5029151;28;20017;-77
2021/12/14 06:10:12;;;;;;;20.52;14.10;;;7.00;99.90;;;;;;5028035;28;20032;-76
2021/12/14 06:12:39;;;;;;;15.77;13.82;;;7.00;99.90;;;;;;5027887;28;20105;-76
2021/12/14 06:15:09;;;;;;;12.95;11.27;;;7.00;99.90;;;;;;5027882;28;20028;-75
2021/12/14 06:17:39;;;;;;;13.57;12.18;;;7.00;99.90;;;;;;5029118;28;20025;-76
2021/12/14 06:20:09;;;;;;;17.98;14.82;;;7.00;99.90;;;;;;5029013;28;20025;-77
2021/12/14 06:22:36;;;;;;;16.85;13.77;;;7.00;99.90;;;;;;5027713;28;20029;-76
2021/12/14 06:25:17;;;;;;;15.63;14.05;;;7.00;99.90;;;;;;5027392;28;20049;-78
2021/12/14 06:27:46;;;;;;;14.85;13.05;;;7.00;99.90;;;;;;5028887;28;20488;-76
2021/12/14 06:30:18;;;;;;;14.60;12.82;;;7.10;99.90;;;;;;5027660;28;20155;-73
2021/12/14 06:32:49;;;;;;;14.93;13.32;;;7.10;99.90;;;;;;5028906;28;20034;-75
2021/12/14 06:35:21;;;;;;;16.58;13.55;;;7.10;99.90;;;;;;5028826;28;20109;-78
2021/12/14 06:38:27;;;;;;;15.23;12.73;;;7.10;99.90;;;;;;5027548;28;20030;-76
2021/12/14 06:41:10;;;;;;;16.42;13.68;;;7.10;99.90;;;;;;5026558;28;20032;-76
2021/12/14 06:43:38;;;;;;;15.23;12.85;;;7.10;99.90;;;;;;5028793;28;20030;-75
2021/12/14 06:46:11;;;;;;;13.65;11.52;;;7.10;99.90;;;;;;5028389;28;20025;-78
2021/12/14 06:48:39;;;;;;;14.18;12.63;;;7.10;99.90;;;;;;5028471;28;20108;-77
2021/12/14 06:51:13;;;;;;;16.38;12.60;;;7.10;99.90;;;;;;5028423;28;20060;-76
2021/12/14 06:53:40;;;;;;;17.98;14.40;;;7.10;99.90;;;;;;5028508;28;20028;-76
2021/12/14 06:56:11;;;;;;;17.20;13.32;;;7.10;99.90;;;;;;5028377;28;20049;-75
2021/12/14 06:59:05;;;;;;;17.67;15.43;;;7.10;99.90;;;;;;5028142;28;20040;-77
2021/12/14 07:01:37;;;;;;;21.80;15.18;;;7.10;99.90;;;;;;5027420;28;20034;-78
2021/12/14 07:04:27;;;;;;;14.60;13.05;;;7.10;99.90;;;;;;5028911;28;20096;-77
2021/12/14 07:06:59;;;;;;;17.20;13.15;;;7.10;99.90;;;;;;5027912;28;20344;-77
2021/12/14 07:09:33;;;;;;;18.30;12.48;;;7.10;99.90;;;;;;5026963;28;20025;-77
2021/12/14 07:12:07;;;;;;;16.10;12.52;;;7.10;99.90;;;;;;5028160;28;20028;-77
2021/12/14 07:14:38;;;;;;;20.60;14.82;;;7.00;99.90;;;;;;5027997;28;20029;-78
2021/12/14 07:17:14;;;;;;;20.15;16.38;;;7.00;99.90;;;;;;5027406;28;20045;-77
2021/12/14 07:19:55;;;;;;;18.90;14.80;;;6.90;99.90;;;;;;5027555;28;20025;-78
2021/12/14 07:22:32;;;;;;;17.88;14.13;;;6.90;99.90;;;;;;5026301;28;20103;-77
2021/12/14 07:25:06;;;;;;;18.80;15.13;;;6.80;99.90;;;;;;5027798;28;20042;-76
2021/12/14 07:27:59;;;;;;;15.30;13.68;;;6.80;99.90;;;;;;5027505;28;20022;-78
2021/12/14 07:30:36;;;;;;;13.45;11.98;;;6.80;99.90;;;;;;5027482;28;20048;-77
2021/12/14 07:33:22;;;;;;;15.73;13.48;;;6.80;99.90;;;;;;5027540;28;20036;-78
2021/12/14 07:36:10;;;;;;;16.50;14.20;;;6.70;99.90;;;;;;5028054;28;20036;-79
2021/12/14 07:39:10;;;;;;;15.80;13.43;;;6.70;99.90;;;;;;5027369;28;20040;-74
2021/12/14 07:41:44;;;;;;;16.33;14.30;;;6.70;99.90;;;;;;5026710;28;20510;-77
2021/12/14 07:44:17;;;;;;;18.20;15.65;;;6.60;99.90;;;;;;5027244;28;20091;-77
2021/12/14 07:46:55;;;;;;;17.67;15.60;;;6.60;99.90;;;;;;5026060;28;20022;-74
2021/12/14 07:49:43;;;;;;;17.17;15.10;;;6.50;99.90;;;;;;5027398;28;20025;-75
2021/12/14 07:52:08;;;;;;;18.20;16.20;;;6.50;99.90;;;;;;5026062;28;20164;-75
2021/12/14 07:54:42;;;;;;;18.48;15.30;;;6.40;99.90;;;;;;5027075;28;20478;-76
2021/12/14 07:57:18;;;;;;;16.90;14.65;;;6.40;99.90;;;;;;5027443;28;20033;-77
2021/12/14 07:59:49;;;;;;;17.58;15.75;;;6.30;99.90;;;;;;5027501;28;20057;-77
2021/12/14 08:02:20;;;;;;;20.85;15.85;;;6.30;99.90;;;;;;5025704;28;20025;-74
2021/12/14 08:04:55;;;;;;;19.67;17.48;;;6.20;99.90;;;;;;5027190;28;20026;-76
2021/12/14 08:07:31;;;;;;;18.45;15.90;;;6.20;99.90;;;;;;5025892;28;20032;-76
2021/12/14 08:10:23;;;;;;;18.40;15.73;;;6.10;99.90;;;;;;5027215;28;20029;-74
2021/12/14 08:12:58;;;;;;;17.00;15.23;;;6.10;99.90;;;;;;5026361;28;20120;-78
2021/12/14 08:15:29;;;;;;;19.70;16.73;;;6.10;99.90;;;;;;5027070;28;20140;-77
2021/12/14 08:18:25;;;;;;;20.05;15.52;;;6.00;99.90;;;;;;5026970;28;20057;-77
2021/12/14 08:21:01;;;;;;;19.70;16.77;;;6.00;99.90;;;;;;5025860;28;20030;-79
2021/12/14 08:23:30;;;;;;;23.35;18.75;;;6.00;99.90;;;;;;5027092;28;20465;-73
2021/12/14 08:26:08;;;;;;;20.75;17.63;;;6.00;99.90;;;;;;5025377;28;20053;-76
2021/12/14 08:28:50;;;;;;;22.77;17.83;;;5.90;99.90;;;;;;5026765;28;20055;-76
2021/12/14 08:31:17;;;;;;;20.67;17.38;;;5.90;99.90;;;;;;5026844;28;20029;-76
2021/12/14 08:33:43;;;;;;;20.35;18.25;;;5.90;99.90;;;;;;5026636;28;20104;-74
2021/12/14 08:36:12;;;;;;;20.55;18.45;;;5.90;99.90;;;;;;5008875;28;20116;-77
2021/12/14 08:38:38;;;;;;;20.08;18.05;;;5.90;99.90;;;;;;5026523;28;20056;-76
2021/12/14 08:41:21;;;;;;;20.70;17.67;;;5.90;99.90;;;;;;5026347;28;20029;-72
2021/12/14 08:43:50;;;;;;;19.67;17.58;;;5.90;99.90;;;;;;5025277;28;20540;-78
2021/12/14 08:46:30;;;;;;;18.58;16.67;;;6.00;99.90;;;;;;5009865;28;20520;-74
2021/12/14 08:48:59;;;;;;;19.40;14.63;;;5.90;99.90;;;;;;5024618;28;20033;-75
2021/12/14 08:51:31;;;;;;;16.80;14.88;;;6.00;99.90;;;;;;5026653;28;20052;-76
2021/12/14 08:54:27;;;;;;;14.95;13.52;;;6.00;99.90;;;;;;5026452;28;20510;-77
2021/12/14 08:57:10;;;;;;;12.32;11.13;;;6.00;99.90;;;;;;5024434;28;20038;-75
2021/12/14 08:59:39;;;;;;;14.00;12.52;;;6.10;99.90;;;;;;5026220;28;20112;-78
2021/12/14 09:02:11;;;;;;;13.52;12.20;;;6.20;99.90;;;;;;5025222;28;20499;-76
2021/12/14 09:04:42;;;;;;;14.43;9.48;;;6.30;99.90;;;;;;5027784;28;20114;-77
2021/12/14 09:07:20;;;;;;;10.55;7.22;;;6.50;99.90;;;;;;5030173;28;20025;-78
2021/12/14 09:09:47;;;;;;;11.07;6.63;;;6.80;99.90;;;;;;5029724;28;20030;-78
2021/12/14 09:12:24;;;;;;;9.55;6.93;;;7.20;99.90;;;;;;5029925;28;20129;-75
2021/12/14 09:14:50;;;;;;;12.13;8.80;;;7.50;99.90;;;;;;5029849;28;20029;-77
2021/12/14 09:17:18;;;;;;;11.38;7.95;;;7.60;99.90;;;;;;5028520;28;20029;-75
2021/12/14 09:19:50;;;;;;;9.38;7.40;;;7.70;99.90;;;;;;5029878;28;20029;-76
2021/12/14 09:22:41;;;;;;;9.30;7.45;;;7.70;99.90;;;;;;5028837;28;20496;-75
2021/12/14 09:25:13;;;;;;;7.90;6.30;;;7.70;99.90;;;;;;5029657;28;20606;-76
2021/12/14 09:27:39;;;;;;;7.63;6.20;;;7.80;99.90;;;;;;5028275;28;20037;-75
2021/12/14 09:30:08;;;;;;;10.38;5.60;;;7.90;99.90;;;;;;5029378;28;20029;-76
2021/12/14 09:32:36;;;;;;;11.30;7.95;;;7.90;99.90;;;;;;5028106;28;20471;-75
2021/12/14 09:35:07;;;;;;;8.10;5.70;;;8.00;99.90;;;;;;5029729;28;20043;-74
2021/12/14 09:37:34;;;;;;;9.65;5.28;;;8.10;99.90;;;;;;5030567;28;20530;-77
2021/12/14 09:40:11;;;;;;;6.70;5.10;;;8.10;99.90;;;;;;5030148;28;20117;-77
2021/12/14 09:42:37;;;;;;;11.10;5.93;;;8.20;99.90;;;;;;5027954;28;20029;-75
2021/12/14 09:45:28;;;;;;;9.10;4.63;;;8.30;99.90;;;;;;5029523;28;20033;-77
2021/12/14 09:47:54;;;;;;;7.32;4.75;;;8.30;99.90;;;;;;5028134;28;20116;-76
2021/12/14 09:50:26;;;;;;;9.18;4.90;;;8.50;99.90;;;;;;5029542;28;20109;-76
2021/12/14 09:52:53;;;;;;;10.98;6.50;;;8.70;99.90;;;;;;5029452;28;20559;-76
2021/12/14 09:55:22;;;;;;;12.77;6.40;;;8.70;99.90;;;;;;5027706;28;20040;-76
2021/12/14 09:57:53;;;;;;;11.88;5.75;;;8.70;99.90;;;;;;5028957;28;20104;-76
2021/12/14 10:00:25;;;;;;;10.07;3.55;;;8.70;99.90;;;;;;5027876;28;20083;-75
2021/12/14 10:02:54;;;;;;;7.95;3.33;;;9.00;99.90;;;;;;5028813;28;20026;-75
2021/12/14 10:05:31;;;;;;;8.60;2.65;;;9.60;99.90;;;;;;5028925;28;20019;-78
2021/12/14 10:07:59;;;;;;;8.73;3.15;;;10.20;99.90;;;;;;5027723;28;20072;-76
2021/12/14 10:10:25;;;;;;;9.35;2.90;;;10.80;99.90;;;;;;5029292;28;20508;-77
2021/12/14 10:12:55;;;;;;;5.03;2.50;;;11.30;99.90;;;;;;5027518;28;20029;-76
2021/12/14 10:15:36;;;;;;;6.50;2.88;;;11.60;99.90;;;;;;5026794;28;20029;-76
2021/12/14 10:18:08;;;;;;;6.60;2.90;;;11.90;99.90;;;;;;5030089;28;20061;-75
2021/12/14 10:20:46;;;;;;;4.93;2.40;;;12.00;99.90;;;;;;5030193;28;20097;-74
2021/12/14 10:23:15;;;;;;;6.15;2.40;;;12.20;99.90;;;;;;5028660;28;20507;-75
2021/12/14 10:25:41;;;;;;;5.72;2.40;;;12.40;99.80;;;;;;5029684;28;20081;-75
2021/12/14 10:28:08;;;;;;;5.00;2.20;;;12.70;99.90;;;;;;5028280;28;20064;-76
2021/12/14 10:30:39;;;;;;;5.30;2.00;;;13.10;99.30;;;;;;5043499;28;20033;-76
2021/12/14 10:33:06;;;;;;;5.60;2.17;;;13.30;98.60;;;;;;5048241;28;20060;-77
2021/12/14 10:35:45;;;;;;;4.32;1.88;;;13.40;98.20;;;;;;5032097;28;20087;-77
2021/12/14 10:38:28;;;;;;;4.65;1.98;;;13.50;97.90;;;;;;5048359;28;20417;-77
2021/12/14 10:43:52;;;;;;;5.57;2.50;;;13.80;96.60;;;;;;5049906;28;20430;-75
2021/12/14 10:46:25;;;;;;;3.63;1.73;;;13.90;96.20;;;;;;5049683;28;20043;-76
2021/12/14 10:48:55;;;;;;;4.93;2.08;;;14.00;95.80;;;;;;5048221;28;20023;-76
2021/12/14 10:51:29;;;;;;;7.32;2.80;;;14.10;95.60;;;;;;5049155;28;20052;-76
2021/12/14 10:53:57;;;;;;;6.13;2.40;;;14.20;95.60;;;;;;5049571;28;20028;-76
2021/12/14 10:56:27;;;;;;;6.95;2.92;;;14.40;95.20;;;;;;5048858;28;20116;-75
2021/12/14 10:58:56;;;;;;;5.18;1.98;;;14.50;94.40;;;;;;5049246;28;20063;-77
2021/12/14 11:01:30;;;;;;;7.68;1.90;;;14.50;94.20;;;;;;5048938;28;20033;-76
2021/12/14 11:04:00;;;;;;;5.70;1.90;;;14.60;94.10;;;;;;5049105;28;20017;-77
2021/12/14 11:06:30;;;;;;;5.70;1.85;;;14.70;94.10;;;;;;5049042;28;20104;-76
2021/12/14 11:11:46;;;;;;;5.82;2.20;;;14.90;93.50;;;;;;5049067;28;20020;-76
2021/12/14 11:14:17;;;;;;;4.07;1.75;;;15.10;93.40;;;;;;5048672;28;20475;-76
2021/12/14 11:20:17;;;;;;;8.43;2.95;;;15.30;92.40;;;;;;5049075;28;20479;-75
2021/12/14 11:22:51;;;;;;;7.45;2.88;;;15.40;92.40;;;;;;5042769;28;20464;-77
2021/12/14 11:25:22;;;;;;;5.03;1.73;;;15.50;92.10;;;;;;5047677;28;20086;-75
2021/12/14 11:27:55;;;;;;;6.43;1.85;;;15.50;92.00;;;;;;5047396;28;20077;-78
2021/12/14 11:30:34;;;;;;;6.30;2.28;;;15.60;91.90;;;;;;5049176;28;20040;-77
2021/12/14 11:33:06;;;;;;;5.05;2.05;;;15.60;91.30;;;;;;5049013;28;20032;-76
2021/12/14 11:35:37;;;;;;;6.15;1.92;;;15.70;91.30;;;;;;5048939;28;20031;-77
2021/12/14 11:38:10;;;;;;;16.35;6.97;;;15.70;91.40;;;;;;5048353;28;20040;-79
2021/12/14 11:40:36;;;;;;;3.92;1.98;;;15.80;90.90;;;;;;5048934;28;20499;-79
2021/12/14 11:43:15;;;;;;;3.65;1.40;;;15.70;90.50;;;;;;5046718;28;20033;-74
2021/12/14 11:45:45;;;;;;;6.13;2.08;;;15.60;90.00;;;;;;5047390;28;20029;-75
2021/12/14 11:48:11;;;;;;;5.47;1.88;;;15.50;90.20;;;;;;5048816;28;20066;-78
2021/12/14 11:50:42;;;;;;;2.75;1.10;;;15.50;90.10;;;;;;5046862;28;20032;-73
2021/12/14 11:53:11;;;;;;;3.88;1.67;;;15.50;90.00;;;;;;5048627;28;20040;-76
2021/12/14 11:55:37;;;;;;;5.85;2.17;;;15.50;90.00;;;;;;5047219;28;20434;-76
2021/12/14 11:58:16;;;;;;;5.80;2.75;;;15.50;89.70;;;;;;5046911;28;20080;-73
2021/12/14 12:00:54;;;;;;;8.57;2.67;;;15.50;89.60;;;;;;5047914;28;20063;-75
2021/12/14 12:03:25;;;;;;;4.00;1.77;;;15.50;88.90;;;;;;5047793;28;20034;-76
2021/12/14 12:06:13;;;;;;;2.83;1.38;;;15.40;88.90;;;;;;5046514;28;20074;-76
2021/12/14 12:11:42;;;;;;;3.55;1.65;;;15.30;87.70;;;;;;5048141;28;20083;-77
2021/12/14 12:14:26;;;;;;;4.15;1.40;;;15.20;87.70;;;;;;5047138;28;20025;-75
2021/12/14 12:16:55;;;;;;;4.53;1.80;;;15.00;87.60;;;;;;5048368;28;20028;-76
2021/12/14 12:19:27;;;;;;;5.57;1.80;;;15.00;88.20;;;;;;5046528;28;20046;-74
2021/12/14 12:21:53;;;;;;;4.43;2.28;;;15.10;88.60;;;;;;5047715;28;20033;-75
2021/12/14 12:24:37;;;;;;;5.65;2.30;;;15.10;88.30;;;;;;5047102;28;20515;-75
2021/12/14 12:27:36;;;;;;;3.38;1.77;;;14.90;87.10;;;;;;5044554;28;20021;-74
2021/12/14 12:30:35;;;;;;;7.63;2.53;;;14.50;86.40;;;;;;5034357;28;20021;-76
2021/12/14 12:33:19;;;;;;;4.93;1.92;;;13.90;86.40;;;;;;5032001;28;20083;-75
2021/12/14 12:35:49;;;;;;;4.90;2.25;;;13.40;86.80;;;;;;5027250;28;20033;-76
2021/12/14 12:38:40;;;;;;;6.70;2.75;;;12.90;87.40;;;;;;5027929;28;20075;-79
2021/12/14 12:41:28;;;;;;;5.28;2.83;;;12.50;88.10;;;;;;5031492;28;20364;-78
2021/12/14 12:43:59;;;;;;;5.82;2.30;;;12.10;89.00;;;;;;5030644;28;20037;-78
2021/12/14 12:46:56;;;;;;;4.55;2.30;;;12.00;89.90;;;;;;5030308;28;20029;-74
2021/12/14 12:49:26;;;;;;;4.47;2.08;;;11.80;90.10;;;;;;5018922;28;20037;-76
2021/12/14 12:51:55;;;;;;;6.00;2.22;;;11.70;90.30;;;;;;5030830;28;20025;-75
2021/12/14 12:54:42;;;;;;;5.25;2.40;;;11.50;90.50;;;;;;5030079;28;20631;-73
2021/12/14 12:57:11;;;;;;;4.85;1.98;;;11.40;90.70;;;;;;5030505;28;20029;-74
2021/12/14 12:59:47;;;;;;;4.10;1.67;;;11.40;90.90;;;;;;5031351;28;20360;-76
2021/12/14 13:02:33;;;;;;;4.88;1.90;;;11.30;91.10;;;;;;5029343;28;20652;-75
2021/12/14 13:05:05;;;;;;;5.75;1.98;;;11.30;91.30;;;;;;5030475;28;20041;-74
2021/12/14 13:07:51;;;;;;;4.60;1.67;;;11.30;91.40;;;;;;5029483;28;20018;-75
2021/12/14 13:10:27;;;;;;;5.93;1.92;;;11.20;91.60;;;;;;5031169;28;20079;-74
2021/12/14 13:13:00;;;;;;;7.60;1.90;;;11.20;91.70;;;;;;5029794;28;20412;-74
2021/12/14 13:15:35;;;;;;;4.00;1.90;;;11.20;91.80;;;;;;5031133;28;20727;-74
2021/12/14 13:18:22;;;;;;;7.10;2.45;;;11.10;91.90;;;;;;5031297;28;20048;-75
2021/12/14 13:20:50;;;;;;;;;;;11.10;92.10;;;;;;5031898;28;20107;-76
2021/12/14 13:23:19;;;;;;;6.70;2.15;;;11.10;92.20;;;;;;5030822;28;19962;-75
2021/12/14 13:25:45;;;;;;;3.30;1.50;;;11.00;92.20;;;;;;5012819;28;20079;-75
2021/12/14 13:28:14;;;;;;;5.93;2.00;;;11.00;92.40;;;;;;5013071;28;20409;-77
2021/12/14 13:30:41;;;;;;;5.13;2.45;;;11.00;92.50;;;;;;5030970;28;20036;-76
2021/12/14 13:33:36;;;;;;;5.50;1.67;;;11.00;92.70;;;;;;5031306;28;20041;-73
2021/12/14 13:36:02;;;;;;;6.97;3.33;;;11.00;92.80;;;;;;5017803;28;20045;-74
2021/12/14 13:38:28;;;;;;;8.40;3.65;;;11.10;92.90;;;;;;5029600;28;20068;-74
2021/12/14 13:40:56;;;;;;;4.93;2.25;;;11.10;92.90;;;;;;5029421;28;20062;-74
2021/12/14 13:43:46;;;;;;;4.40;1.98;;;11.10;92.90;;;;;;5034948;28;20036;-72
2021/12/14 13:46:12;;;;;;;5.93;1.70;;;11.10;92.90;;;;;;5035956;28;20219;-73
2021/12/14 13:48:41;;;;;;;7.03;1.80;;;11.00;93.00;;;;;;5045127;28;20104;-77
2021/12/14 13:51:12;;;;;;;3.60;1.23;;;11.10;93.20;;;;;;5036359;28;20033;-74